createdAt,value
2023-02-18T00:01:23.135Z,100.00
2023-02-18T00:03:50.453Z,100.00
2023-02-18T00:06:22.716Z,100.00
2023-02-18T00:08:49.980Z,100.00
2023-02-18T00:11:18.662Z,100.00
2023-02-18T00:13:50.577Z,100.00
2023-02-18T00:16:17.050Z,100.00
2023-02-18T00:18:43.488Z,100.00
2023-02-18T00:21:10.064Z,100.00
2023-02-18T00:23:36.579Z,100.00
2023-02-18T00:26:09.758Z,100.00
2023-02-18T00:28:36.737Z,100.00
2023-02-18T00:31:10.926Z,100.00
2023-02-18T00:33:38.078Z,100.00
2023-02-18T00:36:07.058Z,100.00
2023-02-18T00:38:34.035Z,100.00
2023-02-18T00:41:01.094Z,100.00
2023-02-18T00:43:28.320Z,100.00
2023-02-18T00:45:55.020Z,100.00
2023-02-18T00:48:21.617Z,100.00
2023-02-18T00:50:48.369Z,100.00
2023-02-18T00:53:14.903Z,100.00
2023-02-18T00:55:43.358Z,100.00
2023-02-18T00:58:11.557Z,100.00
2023-02-18T01:00:38.329Z,100.00
2023-02-18T01:03:07.658Z,100.00
2023-02-18T01:05:34.876Z,100.00
2023-02-18T01:08:03.476Z,100.00
2023-02-18T01:10:29.912Z,100.00
2023-02-18T01:12:56.397Z,100.00
2023-02-18T01:15:23.789Z,100.00
2023-02-18T01:17:51.837Z,100.00
2023-02-18T01:20:19.819Z,100.00
2023-02-18T01:22:46.238Z,100.00
2023-02-18T01:25:13.326Z,100.00
2023-02-18T01:27:39.764Z,100.00
2023-02-18T01:30:09.431Z,100.00
2023-02-18T01:32:35.840Z,100.00
2023-02-18T01:35:03.950Z,100.00
2023-02-18T01:37:31.754Z,100.00
2023-02-18T01:39:58.201Z,100.00
2023-02-18T01:42:28.929Z,100.00
2023-02-18T01:45:33.185Z,100.00
2023-02-18T01:48:17.328Z,100.00
2023-02-18T01:50:47.494Z,100.00
2023-02-18T01:53:16.785Z,100.00
2023-02-18T01:55:43.575Z,100.00
2023-02-18T01:58:12.886Z,100.00
2023-02-18T02:00:40.799Z,100.00
2023-02-18T02:03:07.975Z,100.00
2023-02-18T02:05:34.994Z,100.00
2023-02-18T02:08:02.645Z,100.00
2023-02-18T02:10:42.428Z,100.00
2023-02-18T02:13:22.014Z,100.00
2023-02-18T02:15:59.840Z,100.00
2023-02-18T02:18:44.189Z,100.00
2023-02-18T02:21:47.240Z,100.00
2023-02-18T02:24:28.969Z,100.00
2023-02-18T02:27:21.820Z,100.00
2023-02-18T02:30:26.148Z,100.00
2023-02-18T02:33:16.980Z,100.00
2023-02-18T02:35:43.342Z,100.00
2023-02-18T02:38:24.449Z,100.00
2023-02-18T02:41:02.313Z,100.00
2023-02-18T02:43:34.558Z,100.00
2023-02-18T02:46:17.257Z,100.00
2023-02-18T02:48:50.620Z,100.00
2023-02-18T02:51:27.067Z,100.00
2023-02-18T02:53:53.759Z,100.00
2023-02-18T02:56:24.945Z,100.00
2023-02-18T02:59:04.163Z,100.00
2023-02-18T03:01:53.655Z,100.00
2023-02-18T03:05:02.470Z,100.00
2023-02-18T03:07:47.308Z,100.00
2023-02-18T03:10:57.090Z,100.00
2023-02-18T03:13:53.707Z,100.00
2023-02-18T03:16:38.605Z,100.00
2023-02-18T03:19:14.271Z,100.00
2023-02-18T03:22:06.968Z,100.00
2023-02-18T03:24:46.607Z,100.00
2023-02-18T03:27:17.600Z,100.00
2023-02-18T03:29:48.772Z,100.00
2023-02-18T03:32:19.346Z,100.00
2023-02-18T03:34:51.576Z,100.00
2023-02-18T03:37:20.816Z,100.00
2023-02-18T03:39:51.519Z,100.00
2023-02-18T03:42:18.786Z,100.00
2023-02-18T03:44:45.281Z,100.00
2023-02-18T03:47:12.479Z,100.00
2023-02-18T03:49:40.967Z,100.00
2023-02-18T03:52:07.537Z,100.00
2023-02-18T03:54:33.997Z,100.00
2023-02-18T03:57:00.438Z,100.00
2023-02-18T03:59:27.939Z,100.00
2023-02-18T04:01:54.374Z,100.00
2023-02-18T04:04:20.911Z,100.00
2023-02-18T04:06:47.337Z,100.00
2023-02-18T04:09:13.737Z,100.00
2023-02-18T04:11:40.865Z,100.00
2023-02-18T04:14:08.225Z,100.00
2023-02-18T04:16:34.748Z,100.00
2023-02-18T04:19:01.216Z,100.00
2023-02-18T04:21:28.656Z,100.00
2023-02-18T04:23:55.087Z,100.00
2023-02-18T04:26:34.396Z,100.00
2023-02-18T04:29:00.824Z,100.00
2023-02-18T04:31:27.420Z,100.00
2023-02-18T04:33:53.921Z,100.00
2023-02-18T04:36:20.455Z,100.00
2023-02-18T04:38:47.018Z,100.00
2023-02-18T04:41:17.525Z,100.00
2023-02-18T04:43:43.978Z,100.00
2023-02-18T04:46:10.806Z,100.00
2023-02-18T04:48:37.487Z,100.00
2023-02-18T04:51:10.967Z,100.00
2023-02-18T04:53:37.573Z,100.00
2023-02-18T04:56:04.356Z,100.00
2023-02-18T04:58:31.900Z,100.00
2023-02-18T05:01:03.520Z,100.00
2023-02-18T05:03:31.059Z,100.00
2023-02-18T05:05:58.048Z,100.00
2023-02-18T05:08:24.725Z,100.00
2023-02-18T05:10:51.317Z,100.00
2023-02-18T05:13:17.930Z,100.00
2023-02-18T05:15:44.412Z,100.00
2023-02-18T05:18:10.976Z,100.00
2023-02-18T05:20:37.568Z,100.00
2023-02-18T05:23:04.060Z,100.00
2023-02-18T05:25:36.240Z,100.00
2023-02-18T05:28:02.697Z,100.00
2023-02-18T05:30:29.407Z,100.00
2023-02-18T05:32:55.885Z,100.00
2023-02-18T05:35:22.342Z,100.00
2023-02-18T05:37:54.721Z,100.00
2023-02-18T05:40:21.339Z,100.00
2023-02-18T05:42:48.891Z,100.00
2023-02-18T05:45:15.674Z,100.00
2023-02-18T05:47:42.094Z,100.00
2023-02-18T05:50:08.898Z,100.00
2023-02-18T05:52:35.336Z,100.00
2023-02-18T05:55:01.822Z,100.00
2023-02-18T05:57:28.334Z,100.00
2023-02-18T05:59:57.535Z,100.00
2023-02-18T06:02:24.744Z,100.00
2023-02-18T06:04:51.286Z,100.00
2023-02-18T06:07:18.367Z,100.00
2023-02-18T06:09:44.807Z,100.00
2023-02-18T06:12:11.544Z,100.00
2023-02-18T06:14:38.312Z,100.00
2023-02-18T06:17:04.968Z,100.00
2023-02-18T06:19:31.504Z,100.00
2023-02-18T06:21:58.031Z,100.00
2023-02-18T06:24:24.446Z,100.00
2023-02-18T06:26:50.885Z,100.00
2023-02-18T06:29:17.294Z,100.00
2023-02-18T06:31:43.922Z,100.00
2023-02-18T06:34:16.720Z,100.00
2023-02-18T06:36:43.275Z,100.00
2023-02-18T06:39:09.723Z,100.00
2023-02-18T06:41:36.209Z,100.00
2023-02-18T06:44:04.053Z,100.00
2023-02-18T06:46:30.546Z,100.00
2023-02-18T06:48:56.986Z,100.00
2023-02-18T06:51:23.532Z,100.00
2023-02-18T06:53:50.069Z,100.00
2023-02-18T06:56:17.205Z,100.00
2023-02-18T06:58:43.687Z,100.00
2023-02-18T07:01:10.316Z,100.00
2023-02-18T07:03:36.853Z,100.00
2023-02-18T07:06:03.734Z,100.00
2023-02-18T07:08:30.954Z,100.00
2023-02-18T07:10:57.441Z,100.00
2023-02-18T07:13:23.931Z,100.00
2023-02-18T07:15:50.382Z,100.00
2023-02-18T07:18:22.935Z,100.00
2023-02-18T07:20:51.418Z,100.00
2023-02-18T07:23:23.001Z,100.00
2023-02-18T07:25:49.494Z,100.00
2023-02-18T07:28:16.451Z,100.00
2023-02-18T07:30:42.939Z,100.00
2023-02-18T07:33:09.366Z,100.00
2023-02-18T07:35:39.005Z,100.00
2023-02-18T07:38:14.601Z,100.00
2023-02-18T07:40:41.150Z,100.00
2023-02-18T07:43:07.686Z,100.00
2023-02-18T07:45:34.163Z,100.00
2023-02-18T07:48:00.668Z,100.00
2023-02-18T07:50:27.340Z,100.00
2023-02-18T07:52:53.832Z,100.00
2023-02-18T07:55:20.292Z,100.00
2023-02-18T07:58:01.072Z,100.00
2023-02-18T08:00:33.303Z,100.00
2023-02-18T08:02:59.752Z,100.00
2023-02-18T08:05:26.276Z,100.00
2023-02-18T08:07:52.747Z,100.00
2023-02-18T08:10:19.301Z,100.00
2023-02-18T08:12:46.233Z,100.00
2023-02-18T08:15:13.585Z,100.00
2023-02-18T08:17:42.065Z,100.00
2023-02-18T08:20:10.951Z,100.00
2023-02-18T08:22:38.072Z,100.00
2023-02-18T08:25:05.407Z,100.00
2023-02-18T08:27:31.980Z,100.00
2023-02-18T08:29:58.453Z,100.00
2023-02-18T08:32:28.805Z,100.00
2023-02-18T08:34:55.887Z,100.00
2023-02-18T08:37:23.854Z,100.00
2023-02-18T08:39:50.508Z,100.00
2023-02-18T08:42:18.107Z,100.00
2023-02-18T08:44:44.672Z,100.00
2023-02-18T08:48:15.915Z,100.00
2023-02-18T08:50:06.912Z,100.00
2023-02-18T08:52:33.448Z,100.00
2023-02-18T08:55:06.794Z,100.00
2023-02-18T08:57:39.293Z,100.00
2023-02-18T09:00:07.052Z,100.00
2023-02-18T09:02:36.724Z,100.00
2023-02-18T09:05:09.721Z,100.00
2023-02-18T09:07:37.193Z,100.00
2023-02-18T09:10:04.606Z,100.00
2023-02-18T09:12:32.885Z,100.00
2023-02-18T09:15:00.484Z,100.00
2023-02-18T09:17:27.902Z,100.00
2023-02-18T09:19:54.625Z,100.00
2023-02-18T09:22:21.286Z,100.00
2023-02-18T09:24:47.753Z,100.00
2023-02-18T09:27:21.265Z,100.00
2023-02-18T09:29:49.850Z,100.00
2023-02-18T09:32:32.549Z,100.00
2023-02-18T09:35:02.707Z,100.00
2023-02-18T09:37:29.260Z,100.00
2023-02-18T09:39:56.041Z,100.00
2023-02-18T09:42:32.531Z,100.00
2023-02-18T09:45:03.991Z,100.00
2023-02-18T09:47:39.503Z,100.00
2023-02-18T09:50:28.710Z,100.00
2023-02-18T09:52:58.433Z,100.00
2023-02-18T09:55:39.368Z,100.00
2023-02-18T09:58:15.475Z,100.00
2023-02-18T10:00:48.539Z,100.00
2023-02-18T10:03:23.976Z,100.00
2023-02-18T10:05:59.402Z,100.00
2023-02-18T10:08:35.386Z,100.00
2023-02-18T10:11:02.335Z,100.00
2023-02-18T10:13:33.081Z,100.00
2023-02-18T10:16:00.490Z,100.00
2023-02-18T10:18:45.585Z,100.00
2023-02-18T10:21:16.494Z,100.00
2023-02-18T10:23:53.070Z,100.00
2023-02-18T10:26:20.557Z,100.00
2023-02-18T10:28:47.710Z,100.00
2023-02-18T10:31:28.688Z,100.00
2023-02-18T10:34:18.523Z,100.00
2023-02-18T10:36:58.465Z,100.00
2023-02-18T10:39:43.258Z,100.00
2023-02-18T10:42:09.695Z,100.00
2023-02-18T10:44:45.085Z,100.00
2023-02-18T10:47:19.521Z,100.00
2023-02-18T10:49:54.729Z,100.00
2023-02-18T10:52:21.484Z,100.00
2023-02-18T10:54:52.889Z,100.00
2023-02-18T10:57:22.505Z,100.00
2023-02-18T11:00:15.790Z,100.00
2023-02-18T11:02:42.714Z,100.00
2023-02-18T11:05:28.177Z,100.00
2023-02-18T11:07:58.567Z,100.00
2023-02-18T11:10:33.891Z,100.00
2023-02-18T11:13:09.378Z,100.00
2023-02-18T11:15:36.564Z,100.00
2023-02-18T11:18:25.611Z,100.00
2023-02-18T11:21:04.597Z,100.00
2023-02-18T11:23:45.131Z,100.00
2023-02-18T11:26:17.405Z,100.00
2023-02-18T11:28:47.992Z,100.00
2023-02-18T11:31:24.961Z,100.00
2023-02-18T11:34:03.163Z,100.00
2023-02-18T11:36:35.666Z,97.61
2023-02-18T11:39:24.649Z,99.65
2023-02-18T11:42:04.906Z,95.61
2023-02-18T11:44:38.345Z,97.06
2023-02-18T11:47:13.959Z,89.52
2023-02-18T11:49:43.429Z,91.63
2023-02-18T11:52:46.719Z,93.89
2023-02-18T11:55:18.775Z,94.83
2023-02-18T11:58:06.453Z,95.50
2023-02-18T12:00:48.608Z,92.10
2023-02-18T12:03:48.343Z,92.40
2023-02-18T12:06:32.285Z,92.33
2023-02-18T12:09:06.083Z,90.42
2023-02-18T12:11:40.296Z,91.50
2023-02-18T12:14:17.493Z,90.24
2023-02-18T12:16:50.263Z,89.80
2023-02-18T12:19:19.722Z,90.72
2023-02-18T12:22:06.596Z,88.37
2023-02-18T12:25:01.046Z,91.50
2023-02-18T12:28:17.330Z,89.14
2023-02-18T12:30:56.016Z,89.63
2023-02-18T12:33:28.309Z,90.56
2023-02-18T12:36:03.724Z,89.93
2023-02-18T12:38:38.909Z,90.74
2023-02-18T12:41:08.509Z,91.24
2023-02-18T12:43:38.175Z,89.02
2023-02-18T12:46:10.616Z,90.96
2023-02-18T12:48:56.887Z,86.87
2023-02-18T12:51:36.322Z,87.63
2023-02-18T12:54:13.778Z,86.63
2023-02-18T12:56:45.989Z,87.50
2023-02-18T12:59:53.258Z,87.21
2023-02-18T13:02:25.459Z,87.58
2023-02-18T13:04:51.889Z,88.77
2023-02-18T13:07:40.493Z,87.37
2023-02-18T13:10:28.407Z,87.29
2023-02-18T13:13:18.351Z,86.68
2023-02-18T13:15:56.905Z,84.70
2023-02-18T13:18:42.214Z,82.45
2023-02-18T13:21:14.102Z,84.68
2023-02-18T13:24:06.155Z,85.31
2023-02-18T13:26:34.274Z,84.88
2023-02-18T13:29:24.721Z,86.43
2023-02-18T13:32:12.281Z,87.17
2023-02-18T13:35:09.955Z,86.22
2023-02-18T13:38:04.239Z,83.90
2023-02-18T13:40:32.875Z,84.13
2023-02-18T13:43:27.140Z,84.18
2023-02-18T13:46:17.456Z,85.27
2023-02-18T13:49:07.304Z,84.68
2023-02-18T13:51:41.246Z,85.04
2023-02-18T13:54:10.635Z,85.13
2023-02-18T13:56:46.751Z,81.95
2023-02-18T13:59:36.248Z,81.64
2023-02-18T14:02:48.879Z,84.63
2023-02-18T14:05:21.788Z,85.60
2023-02-18T14:08:06.352Z,83.13
2023-02-18T14:10:35.701Z,86.22
2023-02-18T14:13:20.810Z,85.64
2023-02-18T14:15:59.456Z,83.42
2023-02-18T14:18:58.952Z,85.83
2023-02-18T14:21:42.597Z,84.63
2023-02-18T14:24:13.522Z,87.48
2023-02-18T14:26:49.485Z,87.58
2023-02-18T14:29:30.967Z,87.50
2023-02-18T14:32:04.925Z,86.84
2023-02-18T14:34:49.646Z,87.71
2023-02-18T14:37:36.258Z,87.53
2023-02-18T14:40:27.017Z,88.99
2023-02-18T14:43:25.696Z,90.73
2023-02-18T14:46:23.376Z,91.56
2023-02-18T14:48:59.770Z,88.95
2023-02-18T14:51:29.488Z,89.55
2023-02-18T14:53:56.020Z,93.20
2023-02-18T14:56:24.939Z,97.00
2023-02-18T14:58:59.923Z,100.00
2023-02-18T15:01:35.980Z,100.00
2023-02-18T15:04:04.338Z,100.00
2023-02-18T15:06:33.581Z,100.00
2023-02-18T15:09:03.906Z,100.00
2023-02-18T15:11:43.391Z,100.00
2023-02-18T15:14:16.764Z,100.00
2023-02-18T15:16:44.777Z,100.00
2023-02-18T15:19:20.198Z,100.00
2023-02-18T15:21:51.271Z,100.00
2023-02-18T15:24:18.944Z,100.00
2023-02-18T15:26:50.605Z,100.00
2023-02-18T15:29:23.083Z,100.00
2023-02-18T15:31:49.950Z,100.00
2023-02-18T15:34:35.362Z,100.00
2023-02-18T15:37:13.947Z,100.00
2023-02-18T15:39:42.999Z,100.00
2023-02-18T15:42:34.456Z,100.00
2023-02-18T15:45:16.885Z,100.00
2023-02-18T15:47:48.082Z,100.00
2023-02-18T15:50:26.650Z,100.00
2023-02-18T15:52:55.363Z,100.00
2023-02-18T15:55:33.919Z,100.00
2023-02-18T15:58:22.941Z,100.00
2023-02-18T16:00:56.436Z,100.00
2023-02-18T16:03:24.501Z,100.00
2023-02-18T16:05:52.289Z,100.00
2023-02-18T16:08:27.793Z,100.00
2023-02-18T16:11:13.615Z,100.00
2023-02-18T16:13:48.125Z,100.00
2023-02-18T16:16:34.063Z,100.00
2023-02-18T16:19:01.361Z,100.00
2023-02-18T16:21:46.789Z,100.00
2023-02-18T16:24:25.667Z,100.00
2023-02-18T16:26:56.590Z,100.00
2023-02-18T16:29:35.048Z,100.00
2023-02-18T16:32:01.903Z,100.00
2023-02-18T16:34:30.517Z,100.00
2023-02-18T16:37:22.265Z,100.00
2023-02-18T16:39:51.981Z,100.00
2023-02-18T16:42:18.676Z,100.00
2023-02-18T16:44:50.612Z,100.00
2023-02-18T16:47:28.323Z,100.00
2023-02-18T16:49:55.311Z,100.00
2023-02-18T16:52:22.777Z,100.00
2023-02-18T16:54:50.302Z,100.00
2023-02-18T16:57:16.843Z,100.00
2023-02-18T16:59:45.365Z,100.00
2023-02-18T17:02:22.507Z,100.00
2023-02-18T17:04:58.412Z,100.00
2023-02-18T17:07:24.974Z,100.00
2023-02-18T17:09:53.521Z,100.00
2023-02-18T17:12:19.982Z,100.00
2023-02-18T17:14:46.924Z,100.00
2023-02-18T17:17:22.573Z,100.00
2023-02-18T17:19:49.448Z,100.00
2023-02-18T17:22:15.986Z,100.00
2023-02-18T17:24:42.719Z,100.00
2023-02-18T17:27:11.109Z,100.00
2023-02-18T17:29:37.595Z,100.00
2023-02-18T17:32:08.211Z,100.00
2023-02-18T17:34:36.183Z,100.00
2023-02-18T17:37:03.061Z,100.00
2023-02-18T17:39:31.412Z,100.00
2023-02-18T17:42:01.003Z,100.00
2023-02-18T17:44:29.153Z,100.00
2023-02-18T17:46:56.096Z,100.00
2023-02-18T17:49:23.650Z,100.00
2023-02-18T17:51:59.365Z,100.00
2023-02-18T17:54:28.071Z,100.00
2023-02-18T17:56:55.651Z,100.00
2023-02-18T17:59:22.614Z,100.00
2023-02-18T18:01:55.236Z,100.00
2023-02-18T18:04:21.734Z,100.00
2023-02-18T18:06:50.050Z,100.00
2023-02-18T18:09:17.520Z,100.00
2023-02-18T18:11:59.174Z,100.00
2023-02-18T18:14:31.861Z,100.00
2023-02-18T18:17:00.259Z,100.00
2023-02-18T18:19:33.774Z,100.00
2023-02-18T18:22:00.334Z,100.00
2023-02-18T18:24:26.985Z,100.00
2023-02-18T18:26:57.978Z,100.00
2023-02-18T18:29:28.463Z,100.00
2023-02-18T18:31:54.934Z,100.00
2023-02-18T18:34:23.531Z,100.00
2023-02-18T18:36:51.054Z,100.00
2023-02-18T18:39:23.312Z,100.00
2023-02-18T18:41:49.976Z,100.00
2023-02-18T18:44:22.652Z,100.00
2023-02-18T18:46:49.137Z,100.00
2023-02-18T18:49:16.612Z,100.00
2023-02-18T18:51:43.368Z,100.00
2023-02-18T18:54:11.926Z,100.00
2023-02-18T18:56:38.487Z,100.00
2023-02-18T18:59:05.283Z,100.00
2023-02-18T19:01:33.151Z,100.00
2023-02-18T19:03:59.701Z,100.00
2023-02-18T19:06:26.461Z,100.00
2023-02-18T19:08:52.909Z,100.00
2023-02-18T19:11:19.359Z,100.00
2023-02-18T19:13:45.980Z,100.00
2023-02-18T19:16:37.335Z,100.00
2023-02-18T19:19:03.881Z,100.00
2023-02-18T19:21:31.690Z,100.00
2023-02-18T19:23:59.835Z,100.00
2023-02-18T19:26:26.278Z,100.00
2023-02-18T19:28:52.755Z,100.00
2023-02-18T19:31:24.297Z,100.00
2023-02-18T19:33:51.605Z,100.00
2023-02-18T19:36:19.213Z,100.00
2023-02-18T19:38:53.005Z,100.00
2023-02-18T19:41:19.519Z,100.00
2023-02-18T19:43:48.871Z,100.00
2023-02-18T19:46:23.540Z,100.00
2023-02-18T19:48:53.844Z,100.00
2023-02-18T19:51:21.657Z,100.00
2023-02-18T19:53:48.164Z,100.00
2023-02-18T19:56:14.649Z,100.00
2023-02-18T19:58:42.453Z,100.00
2023-02-18T20:01:16.471Z,100.00
2023-02-18T20:03:44.796Z,100.00
2023-02-18T20:06:21.819Z,100.00
2023-02-18T20:08:50.258Z,100.00
2023-02-18T20:11:25.914Z,100.00
2023-02-18T20:13:54.315Z,100.00
2023-02-18T20:16:20.847Z,100.00
2023-02-18T20:18:47.410Z,100.00
2023-02-18T20:21:13.997Z,100.00
2023-02-18T20:23:40.931Z,100.00
2023-02-18T20:26:08.991Z,100.00
2023-02-18T20:28:35.624Z,100.00
2023-02-18T20:31:11.376Z,100.00
2023-02-18T20:33:38.709Z,100.00
2023-02-18T20:36:07.037Z,100.00
2023-02-18T20:38:34.127Z,100.00
2023-02-18T20:41:14.445Z,100.00
2023-02-18T20:43:42.075Z,100.00
2023-02-18T20:46:12.288Z,100.00
2023-02-18T20:48:43.093Z,100.00
2023-02-18T20:51:22.306Z,100.00
2023-02-18T20:53:50.186Z,100.00
2023-02-18T20:56:22.010Z,100.00
2023-02-18T20:58:51.942Z,100.00
2023-02-18T21:01:20.850Z,100.00
2023-02-18T21:03:48.024Z,100.00
2023-02-18T21:06:17.529Z,100.00
2023-02-18T21:08:47.373Z,100.00
2023-02-18T21:11:17.251Z,100.00
2023-02-18T21:13:47.070Z,100.00
2023-02-18T21:16:14.577Z,100.00
2023-02-18T21:18:41.239Z,100.00
2023-02-18T21:21:09.736Z,100.00
2023-02-18T21:23:39.475Z,100.00
2023-02-18T21:26:18.924Z,100.00
2023-02-18T21:28:58.615Z,100.00
2023-02-18T21:31:31.897Z,100.00
2023-02-18T21:34:00.771Z,100.00
2023-02-18T21:36:27.864Z,100.00
2023-02-18T21:38:56.535Z,100.00
2023-02-18T21:41:24.137Z,100.00
2023-02-18T21:43:50.876Z,100.00
2023-02-18T21:46:29.384Z,100.00
2023-02-18T21:49:02.638Z,100.00
2023-02-18T21:51:49.025Z,100.00
2023-02-18T21:54:21.758Z,100.00
2023-02-18T21:56:50.037Z,100.00
2023-02-18T21:59:18.679Z,100.00
2023-02-18T22:01:46.841Z,100.00
2023-02-18T22:04:13.373Z,100.00
2023-02-18T22:06:39.953Z,100.00
2023-02-18T22:09:07.107Z,100.00
2023-02-18T22:11:34.391Z,100.00
2023-02-18T22:14:01.084Z,100.00
2023-02-18T22:16:29.788Z,100.00
2023-02-18T22:18:57.368Z,100.00
2023-02-18T22:21:33.059Z,100.00
2023-02-18T22:23:59.636Z,100.00
2023-02-18T22:26:26.103Z,100.00
2023-02-18T22:28:58.294Z,100.00
2023-02-18T22:31:26.572Z,100.00
2023-02-18T22:33:53.614Z,100.00
2023-02-18T22:36:22.030Z,100.00
2023-02-18T22:38:49.383Z,100.00
2023-02-18T22:41:18.507Z,100.00
2023-02-18T22:43:45.675Z,100.00
2023-02-18T22:46:16.310Z,100.00
2023-02-18T22:48:44.407Z,100.00
2023-02-18T22:51:19.978Z,100.00
2023-02-18T22:53:46.718Z,100.00
2023-02-18T22:56:16.582Z,100.00
2023-02-18T22:58:43.757Z,100.00
2023-02-18T23:01:29.469Z,100.00
2023-02-18T23:04:13.683Z,100.00
2023-02-18T23:06:42.696Z,100.00
2023-02-18T23:09:13.901Z,100.00
2023-02-18T23:11:40.592Z,100.00
2023-02-18T23:14:19.260Z,100.00
2023-02-18T23:17:14.954Z,100.00
2023-02-18T23:19:43.108Z,100.00
2023-02-18T23:22:11.634Z,100.00
2023-02-18T23:24:41.616Z,100.00
2023-02-18T23:27:10.225Z,100.00
2023-02-18T23:29:37.397Z,100.00
2023-02-18T23:32:04.990Z,100.00
2023-02-18T23:34:32.836Z,100.00
2023-02-18T23:36:59.439Z,100.00
2023-02-18T23:39:26.716Z,100.00
2023-02-18T23:41:53.464Z,100.00
2023-02-18T23:44:22.263Z,100.00
2023-02-18T23:46:49.080Z,100.00
2023-02-18T23:49:24.186Z,100.00
2023-02-18T23:51:53.079Z,100.00
2023-02-18T23:54:20.232Z,100.00
2023-02-18T23:56:46.961Z,100.00
2023-02-18T23:59:13.655Z,100.00
